Time;durP1;ratioP1;P1;durP2;ratioP2;P2;SDS_P1;SDS_P2;PMS_P1;PMS_P2;Temp;Humidity;BMP_temperature;BMP_pressure;BME280_temperature;BME280_humidity;BME280_pressure;Samples;Min_cycle;Max_cycle;Signal;HPM_P1;HPM_P2
2022/05/16 00:02:31;;;;;;;9.70;6.60;;;;;;;8.09;64.03;99865.73;440477;1276;144308;-48
2022/05/16 00:12:38;;;;;;;10.00;6.60;;;;;;;7.97;64.53;99870.73;428686;1277;142219;-47
2022/05/16 00:22:44;;;;;;;7.80;4.90;;;;;;;7.78;64.75;99872.13;444213;1275;142594;-52
2022/05/16 00:32:50;;;;;;;6.00;4.50;;;;;;;7.57;64.92;99878.70;446519;1276;143375;-52
2022/05/16 00:43:03;;;;;;;7.60;4.80;;;;;;;7.41;65.23;99882.21;440671;1276;141220;-52
2022/05/16 00:53:10;;;;;;;6.70;4.00;;;;;;;7.33;65.60;99883.11;442132;1276;140959;-49
2022/05/16 01:13:41;;;;;;;10.60;4.80;;;;;;;7.61;65.09;99883.94;445749;1276;142554;-52
2022/05/16 01:23:52;;;;;;;7.70;3.70;;;;;;;7.54;65.03;99881.48;435895;1276;142138;-47
2022/05/16 01:33:58;;;;;;;5.30;2.90;;;;;;;7.74;65.08;99883.83;440375;1275;144294;-50
2022/05/16 01:44:04;;;;;;;3.00;2.30;;;;;;;7.89;64.76;99885.20;435808;1274;140435;-48
2022/05/16 01:54:10;;;;;;;7.00;2.60;;;;;;;8.02;64.48;99895.59;443845;1276;142365;-50
2022/05/16 02:04:16;;;;;;;4.10;2.00;;;;;;;7.95;64.35;99890.33;446169;1276;142143;-52
2022/05/16 02:14:23;;;;;;;6.00;1.70;;;;;;;7.94;64.34;99896.64;430112;1276;142210;-47
2022/05/16 02:24:42;;;;;;;5.00;2.10;;;;;;;8.02;64.31;99902.37;429345;1276;143555;-55
2022/05/16 02:34:48;;;;;;;3.40;1.90;;;;;;;8.25;64.01;99906.31;431239;1276;141307;-48
2022/05/16 02:44:54;;;;;;;2.40;1.50;;;;;;;8.46;63.80;99895.85;431875;1276;141647;-50
2022/05/16 02:55:01;;;;;;;4.10;2.10;;;;;;;8.50;63.41;99898.81;438960;1275;141022;-51
2022/05/16 03:05:10;;;;;;;6.40;2.60;;;;;;;8.49;63.24;99898.85;439670;1276;256254;-48
2022/05/16 03:15:17;;;;;;;5.60;1.70;;;;;;;8.48;63.08;99898.38;441462;1276;196617;-48
2022/05/16 03:25:24;;;;;;;3.50;1.90;;;;;;;8.44;62.91;99897.70;444300;1276;141606;-51
2022/05/16 03:35:29;;;;;;;5.60;2.60;;;;;;;8.37;63.28;99901.19;445615;1274;141451;-52
2022/05/16 03:45:36;;;;;;;7.40;2.30;;;;;;;8.49;63.44;99914.06;443576;1275;144819;-47
2022/05/16 03:55:41;;;;;;;4.70;1.90;;;;;;;8.77;63.28;99918.42;431550;1276;142067;-50
2022/05/16 04:05:49;;;;;;;1.90;1.30;;;;;;;9.33;62.18;99923.71;438699;1275;144202;-51
2022/05/16 04:15:56;;;;;;;2.20;1.10;;;;;;;14.73;59.05;99916.02;445300;1276;142506;-52
2022/05/16 04:26:01;;;;;;;2.20;1.10;;;;;;;21.96;49.38;99909.80;437897;1276;145908;-50
2022/05/16 04:36:08;;;;;;;7.10;1.90;;;;;;;25.24;40.07;99911.46;437148;1275;141795;-50
2022/05/16 04:46:13;;;;;;;3.70;1.70;;;;;;;22.42;38.54;99904.37;446466;1274;141295;-53
2022/05/16 04:56:19;;;;;;;2.50;1.40;;;;;;;27.02;35.00;99901.19;445663;1274;140742;-54
2022/05/16 05:06:25;;;;;;;5.30;1.30;;;;;;;30.45;30.69;99898.30;446239;1275;140489;-54
2022/05/16 05:16:32;;;;;;;2.60;1.30;;;;;;;33.78;27.00;99895.34;437206;1275;183412;-52
2022/05/16 05:26:39;;;;;;;3.40;1.50;;;;;;;35.52;23.35;99897.25;445638;1276;196318;-55
2022/05/16 05:36:45;;;;;;;1.40;0.60;;;;;;;39.02;20.85;99885.84;440331;1275;145737;-53
2022/05/16 05:46:51;;;;;;;0.90;0.50;;;;;;;41.20;18.24;99887.04;444883;1272;144578;-54
2022/05/16 05:56:56;;;;;;;2.10;0.90;;;;;;;43.44;16.33;99885.99;446778;1271;140720;-54
2022/05/16 06:07:02;;;;;;;2.10;0.60;;;;;;;45.06;14.57;99891.24;447053;1272;140192;-54
2022/05/16 06:17:08;;;;;;;2.30;1.00;;;;;;;46.32;13.22;99891.02;446319;1273;140422;-55
2022/05/16 06:27:14;;;;;;;2.50;0.90;;;;;;;45.35;12.45;99899.90;442381;1273;141599;-54
2022/05/16 06:37:19;;;;;;;1.90;0.90;;;;;;;46.68;11.86;99907.04;447003;1273;141101;-56
2022/05/16 06:47:25;;;;;;;1.80;1.20;;;;;;;46.57;11.35;99913.25;446059;1273;141365;-55
2022/05/16 06:57:33;;;;;;;1.60;1.00;;;;;;;45.00;11.32;99919.23;447086;1273;141322;-55
2022/05/16 07:07:39;;;;;;;5.60;1.60;;;;;;;43.62;11.63;99916.61;443270;1272;141376;-57
2022/05/16 07:17:45;;;;;;;11.80;2.30;;;;;;;45.65;11.13;99921.99;439718;1273;141812;-59
2022/05/16 07:28:00;;;;;;;4.10;2.20;;;;;;;47.21;10.51;99924.61;437740;1273;140768;-56
2022/05/16 07:38:06;;;;;;;4.10;2.90;;;;;;;47.74;10.06;99927.63;438369;1273;144441;-56
2022/05/16 07:48:12;;;;;;;3.20;2.90;;;;;;;47.69;10.09;99928.33;447031;1273;141531;-57
2022/05/16 07:58:20;;;;;;;2.90;1.30;;;;;;;47.08;9.97;99923.36;435990;1273;141575;-57
2022/05/16 08:18:54;;;;;;;2.70;0.90;;;;;;;32.15;15.33;99919.55;446564;1273;140829;-57
2022/05/16 08:28:58;;;;;;;;;;;;;;;28.10;18.46;99923.66;445491;1273;140919;-57
2022/05/16 08:49:31;;;;;;;2.70;0.90;;;;;;;24.69;22.17;99925.26;434739;1273;142688;-57
2022/05/16 08:59:42;;;;;;;2.40;1.00;;;;;;;23.40;23.75;99938.36;432247;1273;151952;-56
2022/05/16 09:09:53;;;;;;;4.70;1.40;;;;;;;22.94;24.59;99949.34;437906;1273;142149;-56
2022/05/16 09:20:15;;;;;;;3.60;1.00;;;;;;;23.26;24.92;99943.29;433237;1271;140709;-57
2022/05/16 09:30:23;;;;;;;1.40;0.90;;;;;;;23.10;24.93;99943.27;443491;1271;141722;-59
2022/05/16 09:40:37;;;;;;;7.20;1.40;;;;;;;22.41;25.87;99938.46;441667;1273;143408;-60
2022/05/16 09:50:42;;;;;;;4.80;1.20;;;;;;;22.24;25.86;99938.38;432262;1273;141068;-59
2022/05/16 10:00:56;;;;;;;2.50;1.80;;;;;;;21.97;26.02;99936.60;430763;1273;140028;-55
2022/05/16 10:11:06;;;;;;;3.80;1.00;;;;;;;21.55;26.11;99935.95;432819;1273;144644;-55
2022/05/16 10:21:19;;;;;;;5.50;1.10;;;;;;;21.81;26.32;99916.52;430670;1273;141890;-56
2022/05/16 10:41:59;;;;;;;1.90;1.20;;;;;;;21.35;27.53;99897.11;429695;1273;140351;-57
2022/05/16 10:52:18;;;;;;;1.50;1.20;;;;;;;20.97;27.82;99887.11;431305;1273;140805;-55
2022/05/16 11:02:37;;;;;;;3.40;1.40;;;;;;;20.62;28.21;99875.70;429815;1273;141504;-57
2022/05/16 11:12:49;;;;;;;3.50;0.70;;;;;;;20.48;28.35;99870.71;431421;1273;140465;-50
2022/05/16 11:23:01;;;;;;;4.90;1.10;;;;;;;20.82;28.06;99863.42;430266;1273;141318;-48
2022/05/16 11:33:18;;;;;;;0.80;0.70;;;;;;;20.99;28.23;99871.06;430869;1273;140539;-52
2022/05/16 11:43:29;;;;;;;14.60;2.70;;;;;;;20.88;28.19;99880.06;430468;1273;140817;-53
2022/05/16 11:53:47;;;;;;;4.90;1.20;;;;;;;20.85;28.28;99868.42;430612;1273;140489;-51
2022/05/16 12:04:11;;;;;;;1.20;0.90;;;;;;;20.94;28.27;99857.92;431654;1273;140940;-49
2022/05/16 12:14:29;;;;;;;2.90;1.10;;;;;;;21.03;28.01;99842.05;429740;1273;139909;-53
2022/05/16 12:24:44;;;;;;;5.30;1.60;;;;;;;21.00;28.20;99835.06;431406;1273;140750;-48
2022/05/16 12:34:51;;;;;;;3.00;1.10;;;;;;;21.45;27.91;99838.21;430678;1273;142043;-46
2022/05/16 12:44:59;;;;;;;5.80;1.20;;;;;;;21.55;28.01;99834.47;431322;1273;140798;-48
2022/05/16 12:55:17;;;;;;;;;;;;;;;21.80;27.80;99828.67;431581;1273;141580;-49
2022/05/16 13:05:35;;;;;;;3.00;1.10;;;;;;;22.23;27.81;99818.16;430032;1273;131832;-47
2022/05/16 13:16:10;;;;;;;8.50;1.50;;;;;;;22.31;27.41;99808.99;430392;1273;204029;-51
2022/05/16 13:36:44;;;;;;;4.90;1.00;;;;;;;22.18;27.12;99790.63;430413;1273;140686;-55
2022/05/16 13:46:53;;;;;;;4.20;2.00;;;;;;;22.37;27.10;99780.17;430776;1274;147143;-51
2022/05/16 13:57:02;;;;;;;7.30;1.60;;;;;;;22.17;27.11;99774.39;434245;1273;141192;-58
2022/05/16 14:07:09;;;;;;;;;;;;;;;21.58;27.46;99772.88;432126;1274;140488;-59
2022/05/16 14:17:37;;;;;;;10.10;1.90;;;;;;;20.91;28.09;99766.57;435569;1273;127376;-58
2022/05/16 14:27:46;;;;;;;6.00;1.10;;;;;;;20.96;28.28;99765.13;442786;1273;140405;-58
2022/05/16 14:37:55;;;;;;;7.40;1.50;;;;;;;20.44;28.77;99756.47;445945;1273;142067;-58
2022/05/16 14:48:01;;;;;;;2.80;1.20;;;;;;;20.18;29.26;99750.34;446938;1273;141834;-61
2022/05/16 14:58:09;;;;;;;3.50;1.50;;;;;;;20.30;29.06;99742.63;446985;1272;141138;-60
2022/05/16 15:08:20;;;;;;;4.00;0.60;;;;;;;20.19;29.25;99734.30;445790;1274;247251;-52
2022/05/16 15:18:27;;;;;;;3.20;1.10;;;;;;;20.12;28.98;99721.39;440932;1273;140953;-51
2022/05/16 15:28:33;;;;;;;3.40;0.60;;;;;;;19.99;28.93;99719.98;444397;1273;141895;-53
2022/05/16 15:38:39;;;;;;;3.80;0.80;;;;;;;19.82;29.00;99708.35;446906;1273;140550;-52
2022/05/16 15:48:45;;;;;;;1.30;0.70;;;;;;;19.64;29.06;99701.20;446821;1273;142081;-52
2022/05/16 15:58:51;;;;;;;4.10;0.70;;;;;;;19.57;29.20;99687.86;441306;1273;141251;-52
2022/05/16 16:08:57;;;;;;;1.90;0.70;;;;;;;19.54;29.11;99682.63;446908;1273;140950;-53
2022/05/16 16:19:03;;;;;;;1.10;0.40;;;;;;;19.40;29.42;99677.52;446887;1273;142271;-53
2022/05/16 16:29:09;;;;;;;1.30;0.50;;;;;;;19.30;29.29;99689.14;446145;1273;142169;-54
2022/05/16 16:39:15;;;;;;;1.80;0.70;;;;;;;19.04;29.41;99695.44;439508;1272;141352;-52
2022/05/16 16:49:21;;;;;;;4.20;0.60;;;;;;;18.80;29.47;99687.90;439123;1272;140977;-54
2022/05/16 16:59:27;;;;;;;1.40;0.50;;;;;;;18.70;29.36;99672.39;442967;1273;143942;-50
2022/05/16 17:09:33;;;;;;;0.80;0.40;;;;;;;18.72;28.99;99674.58;446912;1273;143065;-51
2022/05/16 17:19:40;;;;;;;1.30;0.50;;;;;;;18.44;28.97;99677.88;446199;1273;141955;-51
2022/05/16 17:29:47;;;;;;;2.30;0.30;;;;;;;18.17;28.86;99686.99;446926;1273;141348;-54
2022/05/16 17:39:53;;;;;;;2.50;0.90;;;;;;;17.86;29.15;99689.69;446719;1273;141702;-53
2022/05/16 17:49:58;;;;;;;1.60;0.50;;;;;;;17.62;29.00;99701.38;446129;1273;144459;-53
2022/05/16 18:00:07;;;;;;;4.10;1.10;;;;;;;17.42;29.23;99708.00;446799;1273;141234;-52
2022/05/16 18:10:13;;;;;;;1.10;0.60;;;;;;;17.05;29.58;99712.77;432648;1273;143996;-54
2022/05/16 18:20:21;;;;;;;1.30;0.30;;;;;;;16.60;30.20;99723.35;429636;1273;140695;-49
2022/05/16 18:30:27;;;;;;;3.40;0.90;;;;;;;16.19;30.78;99725.74;430552;1273;140777;-47
2022/05/16 18:40:33;;;;;;;5.30;1.10;;;;;;;15.81;31.49;99731.35;429532;1273;164541;-54
2022/05/16 18:50:45;;;;;;;3.70;1.60;;;;;;;15.50;32.05;99744.87;430287;1273;144845;-51
2022/05/16 19:00:52;;;;;;;1.00;0.70;;;;;;;15.22;32.70;99746.65;430504;1272;140953;-49
2022/05/16 19:11:03;;;;;;;1.80;0.70;;;;;;;15.02;33.31;99757.76;430222;1273;145303;-49
2022/05/16 19:21:14;;;;;;;1.80;0.80;;;;;;;14.83;33.60;99769.30;432315;1273;140858;-51
2022/05/16 19:41:46;;;;;;;1.50;1.40;;;;;;;14.47;34.70;99772.14;430638;1272;144925;-48
2022/05/16 19:51:52;;;;;;;3.80;1.20;;;;;;;14.25;35.21;99786.23;431774;1274;140878;-51
2022/05/16 20:01:58;;;;;;;2.50;1.40;;;;;;;14.03;35.78;99788.37;430482;1273;147067;-52
2022/05/16 20:12:06;;;;;;;5.00;1.20;;;;;;;13.92;36.19;99785.46;430458;1273;140851;-51
2022/05/16 20:32:35;;;;;;;6.50;2.80;;;;;;;13.73;37.02;99781.94;430255;1273;142275;-53
2022/05/16 20:42:41;;;;;;;8.80;2.90;;;;;;;13.66;37.47;99783.00;430603;1273;146030;-52
2022/05/16 20:52:48;;;;;;;7.60;3.70;;;;;;;13.69;37.58;99786.86;429471;1273;141842;-50
2022/05/16 21:02:55;;;;;;;2.20;1.60;;;;;;;13.62;38.05;99787.15;430250;1273;144488;-50
2022/05/16 21:13:03;;;;;;;2.40;1.70;;;;;;;13.51;38.16;99790.28;431351;1270;140397;-45
2022/05/16 21:23:09;;;;;;;4.50;1.60;;;;;;;13.44;38.28;99789.48;432966;1273;142249;-52
2022/05/16 21:33:15;;;;;;;3.30;1.20;;;;;;;13.34;38.39;99783.49;430899;1273;144174;-50
2022/05/16 21:53:41;;;;;;;3.50;1.40;;;;;;;13.32;38.30;99788.60;430686;1273;141938;-50
2022/05/16 22:03:47;;;;;;;4.80;1.80;;;;;;;13.20;38.62;99786.13;431639;1273;140526;-52
2022/05/16 22:13:53;;;;;;;5.80;2.80;;;;;;;13.05;39.48;99787.02;430272;1273;141893;-47
2022/05/16 22:23:59;;;;;;;15.40;2.50;;;;;;;12.91;40.49;99781.11;432108;1273;146506;-48
2022/05/16 22:34:05;;;;;;;3.70;1.60;;;;;;;12.63;42.83;99777.25;432924;1273;141250;-50
2022/05/16 22:44:11;;;;;;;4.00;1.90;;;;;;;12.48;42.23;99768.30;431226;1273;140590;-50
2022/05/16 22:54:17;;;;;;;5.00;2.20;;;;;;;12.38;42.22;99770.37;431736;1273;140373;-49
2022/05/16 23:04:23;;;;;;;10.80;2.00;;;;;;;12.19;44.29;99783.05;431719;1273;140127;-49
2022/05/16 23:14:29;;;;;;;6.10;1.80;;;;;;;11.73;45.72;99781.16;437046;1273;140937;-50
2022/05/16 23:24:35;;;;;;;4.30;1.30;;;;;;;11.44;46.95;99783.94;439981;1273;140664;-52
2022/05/16 23:34:41;;;;;;;2.30;1.30;;;;;;;11.26;47.86;99771.72;437658;1273;141397;-51
2022/05/16 23:44:47;;;;;;;1.80;1.30;;;;;;;11.27;47.16;99768.49;447024;1272;141973;-48
2022/05/16 23:54:53;;;;;;;4.80;2.60;;;;;;;11.35;46.60;99759.05;440573;1273;140758;-46
